AQQ10 IFIS: Internet Flight Information System
logo dgac
Martes 06 de Diciembre del 2022
Buscar por aerodromo o helipuerto
Ingrese nombre de aeródromo, localidad o designador OACI:
METAR del 06-12-2022 a las 08:00 UTC
Para mayor información visite www.meteochile.cl
METAR SCSE 060800Z 20003KT 9999 FEW010 12/12 Q1013
Viento: dirección 200 grados, velocidad 3 nudos
Visibilidad: 10 km o más
Nubes: Escasa nubosidad a 1000 pies sobre el nivel del aeródromo
Temperatura: 12 °C
Rocío: 12 °C
Humedad_relativa: 100%
Presión: 1013 hPa
METAR del 06-12-2022 a las 08:00 UTC
Para mayor información visite www.meteochile.cl
METAR SCSE 060800Z 20003KT 9999 FEW010 12/12 Q1013
Viento: dirección 200 grados, velocidad 3 nudos
Visibilidad: 10 km o más
Nubes: Escasa nubosidad a 1000 pies sobre el nivel del aeródromo
Temperatura: 12 °C
Rocío: 12 °C
Humedad_relativa: 100%
Presión: 1013 hPa
METAR del 06-12-2022 a las 08:00 UTC
Para mayor información visite www.meteochile.cl
METAR SCSE 060800Z 20003KT 9999 FEW010 12/12 Q1013
Viento: dirección 200 grados, velocidad 3 nudos
Visibilidad: 10 km o más
Nubes: Escasa nubosidad a 1000 pies sobre el nivel del aeródromo
Temperatura: 12 °C
Rocío: 12 °C
Humedad_relativa: 100%
Presión: 1013 hPa
METAR del 06-12-2022 a las 07:00 UTC
Para mayor información visite www.meteochile.cl
METAR SCSE 060700Z 20003KT 9999 FEW011 12/12 Q1013
Viento: dirección 200 grados, velocidad 3 nudos
Visibilidad: 10 km o más
Nubes: Escasa nubosidad a 1100 pies sobre el nivel del aeródromo
Temperatura: 12 °C
Rocío: 12 °C
Humedad_relativa: 100%
Presión: 1013 hPa
METAR del 06-12-2022 a las 06:00 UTC
Para mayor información visite www.meteochile.cl
METAR SCSE 060600Z 12002KT CAVOK 12/11 Q1012
Viento: dirección 120 grados, velocidad 2 nudos
Visibilidad: 10 km o más,
    sin nubes bajo los 5.000 pies o bajo del MSA (Mínimo de Seguridad del Aeródromo),
    sin cumulonimbus, y sin fenómenos de tiempo significativo en el aeródromo o alrededores
Temperatura: 12 °C
Rocío: 11 °C
Humedad_relativa: 94%
Presión: 1012 hPa
METAR del 06-12-2022 a las 05:00 UTC
Para mayor información visite www.meteochile.cl
METAR SCSE 060500Z 10004KT CAVOK 13/12 Q1013
Viento: dirección 100 grados, velocidad 4 nudos
Visibilidad: 10 km o más,
    sin nubes bajo los 5.000 pies o bajo del MSA (Mínimo de Seguridad del Aeródromo),
    sin cumulonimbus, y sin fenómenos de tiempo significativo en el aeródromo o alrededores
Temperatura: 13 °C
Rocío: 12 °C
Humedad_relativa: 94%
Presión: 1013 hPa
METAR del 06-12-2022 a las 04:00 UTC
Para mayor información visite www.meteochile.cl
METAR SCSE 060400Z 19002KT CAVOK 14/12 Q1013
Viento: dirección 190 grados, velocidad 2 nudos
Visibilidad: 10 km o más,
    sin nubes bajo los 5.000 pies o bajo del MSA (Mínimo de Seguridad del Aeródromo),
    sin cumulonimbus, y sin fenómenos de tiempo significativo en el aeródromo o alrededores
Temperatura: 14 °C
Rocío: 12 °C
Humedad_relativa: 88%
Presión: 1013 hPa
METAR del 06-12-2022 a las 03:00 UTC
Para mayor información visite www.meteochile.cl
METAR SCSE 060300Z 19002KT CAVOK 13/13 Q1013
Viento: dirección 190 grados, velocidad 2 nudos
Visibilidad: 10 km o más,
    sin nubes bajo los 5.000 pies o bajo del MSA (Mínimo de Seguridad del Aeródromo),
    sin cumulonimbus, y sin fenómenos de tiempo significativo en el aeródromo o alrededores
Temperatura: 13 °C
Rocío: 13 °C
Humedad_relativa: 100%
Presión: 1013 hPa
METAR del 06-12-2022 a las 02:00 UTC
Para mayor información visite www.meteochile.cl
METAR SCSE 060200Z 26003KT CAVOK 14/13 Q1013
Viento: dirección 260 grados, velocidad 3 nudos
Visibilidad: 10 km o más,
    sin nubes bajo los 5.000 pies o bajo del MSA (Mínimo de Seguridad del Aeródromo),
    sin cumulonimbus, y sin fenómenos de tiempo significativo en el aeródromo o alrededores
Temperatura: 14 °C
Rocío: 13 °C
Humedad_relativa: 94%
Presión: 1013 hPa
METAR del 06-12-2022 a las 01:00 UTC
Para mayor información visite www.meteochile.cl
METAR SCSE 060100Z 22003KT 170V280 CAVOK 14/12 Q1013
Viento: dirección 220 grados, velocidad 3 nudos
Viento con dirección variable entre 170 y 280 grados
Visibilidad: 10 km o más,
    sin nubes bajo los 5.000 pies o bajo del MSA (Mínimo de Seguridad del Aeródromo),
    sin cumulonimbus, y sin fenómenos de tiempo significativo en el aeródromo o alrededores
Temperatura: 14 °C
Rocío: 12 °C
Humedad_relativa: 88%
Presión: 1013 hPa